createdAt,value
2019-03-24T00:00:49.752Z,40.47
2019-03-24T00:03:18.636Z,38.43
2019-03-24T00:05:47.693Z,40.13
2019-03-24T00:08:16.534Z,35.63
2019-03-24T00:10:45.594Z,37.73
2019-03-24T00:13:14.519Z,41.00
2019-03-24T00:15:43.497Z,39.57
2019-03-24T00:18:12.445Z,35.93
2019-03-24T00:20:41.421Z,39.37
2019-03-24T00:23:10.417Z,35.57
2019-03-24T00:25:40.540Z,38.27
2019-03-24T00:28:09.506Z,33.80
2019-03-24T00:30:38.490Z,34.10
2019-03-24T00:33:07.504Z,42.77
2019-03-24T00:35:36.505Z,41.77
2019-03-24T00:38:05.587Z,37.57
2019-03-24T00:40:34.594Z,42.30
2019-03-24T00:43:03.521Z,36.67
2019-03-24T00:45:37.108Z,34.93
2019-03-24T00:48:04.112Z,38.30
2019-03-24T00:50:33.067Z,39.77
2019-03-24T00:53:02.047Z,38.20
2019-03-24T00:55:30.918Z,41.93
2019-03-24T00:57:59.918Z,41.63
2019-03-24T01:00:48.108Z,41.13
2019-03-24T01:03:17.359Z,39.03
2019-03-24T01:05:46.558Z,38.27
2019-03-24T01:08:15.582Z,36.33
2019-03-24T01:10:44.677Z,39.77
2019-03-24T01:13:13.904Z,38.77
2019-03-24T01:15:47.779Z,42.70
2019-03-24T01:18:13.652Z,39.93
2019-03-24T01:20:42.542Z,36.50
2019-03-24T01:23:11.545Z,35.77
2019-03-24T01:25:40.483Z,38.43
2019-03-24T01:28:09.416Z,40.03
2019-03-24T01:30:38.361Z,39.27
2019-03-24T01:33:07.191Z,39.57
2019-03-24T01:35:36.212Z,39.97
2019-03-24T01:38:05.201Z,35.70
2019-03-24T01:40:34.234Z,43.30
2019-03-24T01:43:03.218Z,35.53
2019-03-24T01:45:32.150Z,40.47
2019-03-24T01:48:01.079Z,39.80
2019-03-24T01:50:30.042Z,37.80
2019-03-24T01:52:59.011Z,44.30
2019-03-24T01:55:27.992Z,39.03
2019-03-24T01:57:56.970Z,42.23
2019-03-24T02:00:25.920Z,38.13
2019-03-24T02:02:54.941Z,37.13
2019-03-24T02:05:23.977Z,38.43
2019-03-24T02:07:52.859Z,41.43
2019-03-24T02:10:21.773Z,38.60
2019-03-24T02:12:50.797Z,38.23
2019-03-24T02:15:19.814Z,40.23
2019-03-24T02:17:48.787Z,39.27
2019-03-24T02:20:17.697Z,43.60
2019-03-24T02:22:46.691Z,38.63
2019-03-24T02:25:15.587Z,43.43
2019-03-24T02:27:44.525Z,42.17
2019-03-24T02:30:13.961Z,38.80
2019-03-24T02:32:42.991Z,40.67
2019-03-24T02:35:12.045Z,39.73
2019-03-24T02:37:42.803Z,44.93
2019-03-24T02:40:11.758Z,44.43
2019-03-24T02:42:40.712Z,39.50
2019-03-24T02:45:10.689Z,42.43
2019-03-24T02:47:39.681Z,40.83
2019-03-24T02:50:10.066Z,45.13
2019-03-24T02:52:39.077Z,43.60
2019-03-24T02:55:08.527Z,40.57
2019-03-24T02:57:37.472Z,42.03
2019-03-24T03:00:06.979Z,44.80
2019-03-24T03:02:36.024Z,41.10
2019-03-24T03:05:05.423Z,39.67
2019-03-24T03:07:34.447Z,40.70
2019-03-24T03:10:03.429Z,42.00
2019-03-24T03:12:32.382Z,38.50
2019-03-24T03:15:01.406Z,38.10
2019-03-24T03:17:30.398Z,42.00
2019-03-24T03:19:59.390Z,40.10
2019-03-24T03:22:28.390Z,44.53
2019-03-24T03:24:57.365Z,41.90
2019-03-24T03:27:26.306Z,39.48
2019-03-24T03:29:55.294Z,42.15
2019-03-24T03:32:24.267Z,40.03
2019-03-24T03:34:53.303Z,40.83
2019-03-24T03:37:22.244Z,41.37
2019-03-24T03:39:56.956Z,41.13
2019-03-24T03:42:21.944Z,41.23
2019-03-24T03:44:50.956Z,43.33
2019-03-24T03:47:19.897Z,44.50
2019-03-24T03:49:48.854Z,39.90
2019-03-24T03:52:17.855Z,40.70
2019-03-24T03:54:46.807Z,43.20
2019-03-24T03:57:15.767Z,40.23
2019-03-24T03:59:44.710Z,40.25
2019-03-24T04:02:13.686Z,37.93
2019-03-24T04:04:42.660Z,43.98
2019-03-24T04:07:11.691Z,39.13
2019-03-24T04:09:40.688Z,45.17
2019-03-24T04:12:09.650Z,41.68
2019-03-24T04:14:38.634Z,39.87
2019-03-24T04:17:08.198Z,38.90
2019-03-24T04:19:37.258Z,39.78
2019-03-24T04:22:06.190Z,37.28
2019-03-24T04:24:35.193Z,39.50
2019-03-24T04:27:04.142Z,38.48
2019-03-24T04:29:33.096Z,35.68
2019-03-24T04:32:02.059Z,43.90
2019-03-24T04:34:31.159Z,39.93
2019-03-24T04:37:00.211Z,41.90
2019-03-24T04:39:29.203Z,37.95
2019-03-24T04:41:58.231Z,41.20
2019-03-24T04:44:27.216Z,39.60
2019-03-24T04:46:56.238Z,43.02
2019-03-24T04:49:25.283Z,41.80
2019-03-24T04:51:54.347Z,39.42
2019-03-24T04:54:23.520Z,37.33
2019-03-24T04:56:52.546Z,39.80
2019-03-24T04:59:21.569Z,38.08
2019-03-24T05:01:50.659Z,38.28
2019-03-24T05:04:19.757Z,40.28
2019-03-24T05:06:48.752Z,38.05
2019-03-24T05:09:17.730Z,38.83
2019-03-24T05:11:46.703Z,43.25
2019-03-24T05:14:15.584Z,37.67
2019-03-24T05:16:44.451Z,42.08
2019-03-24T05:19:13.433Z,42.70
2019-03-24T05:21:42.326Z,41.70
2019-03-24T05:24:11.283Z,38.98
2019-03-24T05:26:40.283Z,43.70
2019-03-24T05:29:09.223Z,43.45
2019-03-24T05:31:38.184Z,40.58
2019-03-24T05:34:07.137Z,42.60
2019-03-24T05:36:36.013Z,41.90
2019-03-24T05:39:06.162Z,35.47
2019-03-24T05:41:35.181Z,44.43
2019-03-24T05:44:04.108Z,40.13
2019-03-24T05:46:32.985Z,36.58
2019-03-24T05:49:02.042Z,39.35
2019-03-24T05:51:30.967Z,37.73
2019-03-24T05:54:00.007Z,35.87
2019-03-24T05:56:28.955Z,38.70
2019-03-24T05:58:57.965Z,38.70
2019-03-24T06:01:26.915Z,34.67
2019-03-24T06:03:55.859Z,34.27
2019-03-24T06:06:24.781Z,32.93
2019-03-24T06:08:53.778Z,32.53
2019-03-24T06:11:22.689Z,36.47
2019-03-24T06:13:51.675Z,38.70
2019-03-24T06:16:20.641Z,38.53
2019-03-24T06:18:49.587Z,37.53
2019-03-24T06:21:18.573Z,36.37
2019-03-24T06:23:47.585Z,33.03
2019-03-24T06:26:16.593Z,39.23
2019-03-24T06:28:45.571Z,35.67
2019-03-24T06:31:14.529Z,36.27
2019-03-24T06:33:43.431Z,37.20
2019-03-24T06:36:12.436Z,40.83
2019-03-24T06:38:41.381Z,31.93
2019-03-24T06:41:10.377Z,33.07
2019-03-24T06:43:39.331Z,27.83
2019-03-24T06:46:08.499Z,29.87
2019-03-24T06:48:37.458Z,34.97
2019-03-24T06:51:06.369Z,30.63
2019-03-24T06:53:35.423Z,36.10
2019-03-24T06:56:04.364Z,34.77
2019-03-24T06:58:33.310Z,35.53
2019-03-24T07:01:02.314Z,36.30
2019-03-24T07:03:32.762Z,31.60
2019-03-24T07:06:01.769Z,37.43
2019-03-24T07:08:30.775Z,39.40
2019-03-24T07:10:59.775Z,39.90
2019-03-24T07:13:28.841Z,34.17
2019-03-24T07:15:57.934Z,38.13
2019-03-24T07:18:26.957Z,41.57
2019-03-24T07:20:55.917Z,42.03
2019-03-24T07:23:24.821Z,40.07
2019-03-24T07:25:53.782Z,44.47
2019-03-24T07:28:24.885Z,37.40
2019-03-24T07:30:53.439Z,42.97
2019-03-24T07:33:22.445Z,43.63
2019-03-24T07:35:51.441Z,39.63
2019-03-24T07:38:20.411Z,39.67
2019-03-24T07:40:49.426Z,43.07
2019-03-24T07:43:18.485Z,43.30
2019-03-24T07:45:47.533Z,46.47
2019-03-24T07:48:19.285Z,35.03
2019-03-24T07:50:47.221Z,42.50
2019-03-24T07:53:16.227Z,37.90
2019-03-24T07:55:45.231Z,41.27
2019-03-24T07:58:14.295Z,40.60
2019-03-24T08:00:43.301Z,36.83
2019-03-24T08:03:12.321Z,49.73
2019-03-24T08:05:41.446Z,41.93
2019-03-24T08:08:10.489Z,51.67
2019-03-24T08:10:39.521Z,50.10
2019-03-24T08:13:08.641Z,42.27
2019-03-24T08:15:37.692Z,54.90
2019-03-24T08:18:06.632Z,47.40
2019-03-24T08:20:35.629Z,53.73
2019-03-24T08:23:04.663Z,52.13
2019-03-24T08:25:33.775Z,47.13
2019-03-24T08:28:02.798Z,43.90
2019-03-24T08:30:32.619Z,44.93
2019-03-24T08:33:01.539Z,49.53
2019-03-24T08:35:31.630Z,49.20
2019-03-24T08:38:00.673Z,44.30
2019-03-24T08:40:29.671Z,45.77
2019-03-24T08:42:58.893Z,48.90
2019-03-24T08:45:28.575Z,44.43
2019-03-24T08:47:57.945Z,45.03
2019-03-24T08:50:26.978Z,48.43
2019-03-24T08:52:58.607Z,55.77
2019-03-24T08:55:27.651Z,56.00
2019-03-24T08:58:04.768Z,52.50
2019-03-24T09:00:33.813Z,51.67
2019-03-24T09:03:02.745Z,55.10
2019-03-24T09:05:33.723Z,54.93
2019-03-24T09:08:02.435Z,52.63
2019-03-24T09:10:31.439Z,61.57
2019-03-24T09:13:01.518Z,59.60
2019-03-24T09:15:30.492Z,55.40
2019-03-24T09:17:59.490Z,61.93
2019-03-24T09:20:28.421Z,57.17
2019-03-24T09:22:57.391Z,55.27
2019-03-24T09:25:26.452Z,55.63
2019-03-24T09:27:55.428Z,60.43
2019-03-24T09:30:28.061Z,56.83
2019-03-24T09:32:57.131Z,60.90
2019-03-24T09:35:26.196Z,57.60
2019-03-24T09:37:55.222Z,53.07
2019-03-24T09:40:27.504Z,60.83
2019-03-24T09:42:57.076Z,55.33
2019-03-24T09:45:26.051Z,56.40
2019-03-24T09:47:55.153Z,58.40
2019-03-24T09:50:24.304Z,53.90
2019-03-24T09:52:53.250Z,57.97
2019-03-24T09:55:24.186Z,54.37
2019-03-24T09:57:55.347Z,50.77
2019-03-24T10:00:24.417Z,55.80
2019-03-24T10:02:53.491Z,54.97
2019-03-24T10:05:22.531Z,56.50
2019-03-24T10:07:51.477Z,55.53
2019-03-24T10:10:20.483Z,52.30
2019-03-24T10:12:49.514Z,53.27
2019-03-24T10:15:18.520Z,53.63
2019-03-24T10:17:47.523Z,49.80
2019-03-24T10:20:16.567Z,53.97
2019-03-24T10:22:45.509Z,47.13
2019-03-24T10:25:14.464Z,54.03
2019-03-24T10:27:43.439Z,51.73
2019-03-24T10:30:12.447Z,50.23
2019-03-24T10:32:41.437Z,50.97
2019-03-24T10:35:10.372Z,54.90
2019-03-24T10:37:39.321Z,47.33
2019-03-24T10:40:08.859Z,51.23
2019-03-24T10:42:38.588Z,47.93
2019-03-24T10:45:09.134Z,51.40
2019-03-24T10:47:38.113Z,53.00
2019-03-24T10:50:09.189Z,47.90
2019-03-24T10:52:38.220Z,47.00
2019-03-24T10:55:08.335Z,48.77
2019-03-24T10:57:37.569Z,50.63
2019-03-24T11:00:07.427Z,47.47
2019-03-24T11:02:39.479Z,51.87
2019-03-24T11:05:08.526Z,51.53
2019-03-24T11:07:38.795Z,53.27
2019-03-24T11:10:08.185Z,51.93
2019-03-24T11:12:37.269Z,52.27
2019-03-24T11:15:07.226Z,47.73
2019-03-24T11:17:36.191Z,50.90
2019-03-24T11:20:05.615Z,50.47
2019-03-24T11:22:34.785Z,49.33
2019-03-24T11:25:04.194Z,51.37
2019-03-24T11:27:33.217Z,48.73
2019-03-24T11:30:02.213Z,50.00
2019-03-24T11:32:31.333Z,50.87
2019-03-24T11:35:00.510Z,54.73
2019-03-24T11:37:29.629Z,50.90
2019-03-24T11:39:58.661Z,43.97
2019-03-24T11:42:27.711Z,50.03
2019-03-24T11:44:56.835Z,49.80
2019-03-24T11:47:26.801Z,45.73
2019-03-24T11:49:56.152Z,44.00
2019-03-24T11:52:25.130Z,50.50
2019-03-24T11:54:54.108Z,49.27
2019-03-24T11:57:23.120Z,44.07
2019-03-24T11:59:52.075Z,52.50
2019-03-24T12:02:21.122Z,48.60
2019-03-24T12:04:50.189Z,50.10
2019-03-24T12:07:19.178Z,43.30
2019-03-24T12:09:48.134Z,46.67
2019-03-24T12:12:17.258Z,44.23
2019-03-24T12:14:46.263Z,40.80
2019-03-24T12:17:15.286Z,45.10
2019-03-24T12:19:56.272Z,48.77
2019-03-24T12:22:15.404Z,45.83
2019-03-24T12:24:44.909Z,42.60
2019-03-24T12:27:13.931Z,44.37
2019-03-24T12:29:42.907Z,41.90
2019-03-24T12:32:11.932Z,45.07
2019-03-24T12:34:40.915Z,43.40
2019-03-24T12:37:09.863Z,40.63
2019-03-24T12:39:39.081Z,49.83
2019-03-24T12:42:08.146Z,47.37
2019-03-24T12:44:37.161Z,42.10
2019-03-24T12:47:06.246Z,40.27
2019-03-24T12:49:35.204Z,47.47
2019-03-24T12:52:04.158Z,45.00
2019-03-24T12:54:33.377Z,43.30
2019-03-24T12:57:02.472Z,37.07
2019-03-24T12:59:31.444Z,38.80
2019-03-24T13:02:00.386Z,42.53
2019-03-24T13:04:29.234Z,39.47
2019-03-24T13:06:58.225Z,37.07
2019-03-24T13:09:27.223Z,37.53
2019-03-24T13:11:56.195Z,38.87
2019-03-24T13:14:25.232Z,41.13
2019-03-24T13:16:54.224Z,42.23
2019-03-24T13:19:23.210Z,34.13
2019-03-24T13:21:52.333Z,36.27
2019-03-24T13:24:21.298Z,36.83
2019-03-24T13:26:50.257Z,36.60
2019-03-24T13:29:19.299Z,34.97
2019-03-24T13:31:48.989Z,36.10
2019-03-24T13:34:18.091Z,37.63
2019-03-24T13:36:47.131Z,38.17
2019-03-24T13:39:16.137Z,36.67
2019-03-24T13:41:45.138Z,38.80
2019-03-24T13:44:14.110Z,38.33
2019-03-24T13:46:45.406Z,37.97
2019-03-24T13:49:14.752Z,37.70
2019-03-24T13:51:43.810Z,40.27
2019-03-24T13:54:12.898Z,41.27
2019-03-24T13:56:41.898Z,38.63
2019-03-24T13:59:10.867Z,40.70
2019-03-24T14:01:39.825Z,40.47
2019-03-24T14:04:08.847Z,38.87
2019-03-24T14:06:37.736Z,41.00
2019-03-24T14:09:08.223Z,39.83
2019-03-24T14:11:37.178Z,41.60
2019-03-24T14:14:06.082Z,37.33
2019-03-24T14:16:35.063Z,36.47
2019-03-24T14:19:04.047Z,41.60
2019-03-24T14:21:33.009Z,34.33
2019-03-24T14:24:01.961Z,34.43
2019-03-24T14:26:30.908Z,34.67
2019-03-24T14:28:59.895Z,37.77
2019-03-24T14:31:28.886Z,35.20
2019-03-24T14:33:57.857Z,39.40
2019-03-24T14:36:26.790Z,40.47
2019-03-24T14:38:55.761Z,38.80
2019-03-24T14:41:24.766Z,37.23
2019-03-24T14:43:53.750Z,36.87
2019-03-24T14:46:22.695Z,37.70
2019-03-24T14:48:51.650Z,43.60
2019-03-24T14:51:20.627Z,43.87
2019-03-24T14:53:49.659Z,40.50
2019-03-24T14:56:18.586Z,38.13
2019-03-24T14:58:47.566Z,44.40
2019-03-24T15:01:19.500Z,42.47
2019-03-24T15:03:48.467Z,41.17
2019-03-24T15:06:17.418Z,48.07
2019-03-24T15:08:46.365Z,46.33
2019-03-24T15:11:15.321Z,41.80
2019-03-24T15:13:44.302Z,44.00
2019-03-24T15:16:32.122Z,41.27
2019-03-24T15:19:01.072Z,47.60
2019-03-24T15:21:30.024Z,48.10
2019-03-24T15:23:59.041Z,49.67
2019-03-24T15:26:28.047Z,49.77
2019-03-24T15:28:57.099Z,46.60
2019-03-24T15:31:26.093Z,47.83
2019-03-24T15:33:55.007Z,47.77
2019-03-24T15:36:24.053Z,45.57
2019-03-24T15:38:53.067Z,46.10
2019-03-24T15:41:22.051Z,47.27
2019-03-24T15:43:50.960Z,41.57
2019-03-24T15:46:20.029Z,42.83
2019-03-24T15:48:50.174Z,45.73
2019-03-24T15:51:19.633Z,44.57
2019-03-24T15:53:48.669Z,47.90
2019-03-24T15:56:17.607Z,43.77
2019-03-24T15:58:46.646Z,48.13
2019-03-24T16:01:15.617Z,38.90
2019-03-24T16:03:44.637Z,50.17
2019-03-24T16:06:13.591Z,44.77
2019-03-24T16:08:42.665Z,48.60
2019-03-24T16:11:11.597Z,48.43
2019-03-24T16:13:40.576Z,45.63
2019-03-24T16:16:09.603Z,46.53
2019-03-24T16:18:38.545Z,50.80
2019-03-24T16:21:07.451Z,52.67
2019-03-24T16:23:38.177Z,54.97
2019-03-24T16:26:07.337Z,57.03
2019-03-24T16:28:38.011Z,54.23
2019-03-24T16:31:07.127Z,58.37
2019-03-24T16:33:36.288Z,62.67
2019-03-24T16:36:05.495Z,58.23
2019-03-24T16:38:34.724Z,59.33
2019-03-24T16:41:03.749Z,57.93
2019-03-24T16:43:35.106Z,57.83
2019-03-24T16:46:04.609Z,59.13
2019-03-24T16:48:36.947Z,62.10
2019-03-24T16:51:05.022Z,55.73
2019-03-24T16:53:34.425Z,66.43
2019-03-24T16:56:03.715Z,56.90
2019-03-24T16:58:32.909Z,60.73
2019-03-24T17:01:02.048Z,59.63
2019-03-24T17:03:52.940Z,63.03
2019-03-24T17:06:25.061Z,57.57
2019-03-24T17:12:23.429Z,60.53
2019-03-24T17:14:53.847Z,60.73
2019-03-24T17:17:22.836Z,58.50
2019-03-24T17:19:51.911Z,60.23
2019-03-24T17:30:29.437Z,59.03
2019-03-24T17:32:58.442Z,54.27
2019-03-24T17:35:27.468Z,60.20
2019-03-24T17:37:56.562Z,57.17
2019-03-24T17:40:25.482Z,54.00
2019-03-24T17:42:55.376Z,55.40
2019-03-24T17:45:25.405Z,58.97
2019-03-24T17:47:54.451Z,58.73
2019-03-24T17:50:25.231Z,58.13
2019-03-24T17:52:54.380Z,62.43
2019-03-24T17:55:27.904Z,60.00
2019-03-24T17:57:54.100Z,63.87
2019-03-24T18:00:33.338Z,62.70
2019-03-24T18:03:01.904Z,63.17
2019-03-24T18:05:30.945Z,61.07
2019-03-24T18:08:00.057Z,71.70
2019-03-24T18:10:29.158Z,64.30
2019-03-24T18:12:58.511Z,68.60
2019-03-24T18:15:27.947Z,64.40
2019-03-24T18:17:57.059Z,70.13
2019-03-24T18:20:30.147Z,65.30
2019-03-24T18:22:59.148Z,63.30
2019-03-24T18:25:28.119Z,67.30
2019-03-24T18:27:57.168Z,66.83
2019-03-24T18:30:27.146Z,69.17
2019-03-24T18:32:56.808Z,71.07
2019-03-24T18:35:26.674Z,66.67
2019-03-24T18:37:56.446Z,72.00
2019-03-24T18:40:25.892Z,69.67
2019-03-24T18:42:55.300Z,69.57
2019-03-24T18:45:24.380Z,64.47
2019-03-24T18:47:53.751Z,72.13
2019-03-24T18:50:23.550Z,69.00
2019-03-24T18:52:52.597Z,69.17
2019-03-24T18:55:21.573Z,68.77
2019-03-24T18:57:50.640Z,71.17
2019-03-24T19:00:20.779Z,71.37
2019-03-24T19:02:49.954Z,65.63
2019-03-24T19:05:22.290Z,67.60
2019-03-24T19:07:54.182Z,72.17
2019-03-24T19:10:23.737Z,77.27
2019-03-24T19:12:53.146Z,71.37
2019-03-24T19:15:22.557Z,67.33
2019-03-24T19:17:51.646Z,66.07
2019-03-24T19:20:20.614Z,65.30
2019-03-24T19:22:49.633Z,69.60
2019-03-24T19:25:18.674Z,78.27
2019-03-24T19:27:47.644Z,69.50
2019-03-24T19:30:16.833Z,71.07
2019-03-24T19:32:46.134Z,72.67
2019-03-24T19:35:15.455Z,73.20
2019-03-24T19:37:46.314Z,75.73
2019-03-24T19:40:25.847Z,74.57
2019-03-24T19:42:55.152Z,71.93
2019-03-24T19:45:24.316Z,81.10
2019-03-24T19:47:53.505Z,73.80
2019-03-24T19:50:22.662Z,79.03
2019-03-24T19:52:51.871Z,80.57
2019-03-24T19:55:21.111Z,77.93
2019-03-24T19:57:50.320Z,76.90
2019-03-24T20:00:19.839Z,70.40
2019-03-24T20:02:48.945Z,74.50
2019-03-24T20:05:18.105Z,79.93
2019-03-24T20:07:48.278Z,77.87
2019-03-24T20:10:17.633Z,73.23
2019-03-24T20:12:46.964Z,77.60
2019-03-24T20:15:16.109Z,78.27
2019-03-24T20:17:45.332Z,74.53
2019-03-24T20:20:14.773Z,84.73
2019-03-24T20:22:43.982Z,78.13
2019-03-24T20:25:13.176Z,77.27
2019-03-24T20:27:42.316Z,77.97
2019-03-24T20:30:12.307Z,87.50
2019-03-24T20:32:41.708Z,79.73
2019-03-24T20:35:10.977Z,80.93
2019-03-24T20:37:40.185Z,84.53
2019-03-24T20:40:09.728Z,86.90
2019-03-24T20:42:38.866Z,81.57
2019-03-24T20:45:08.170Z,79.53
2019-03-24T20:47:37.397Z,86.27
2019-03-24T20:50:07.151Z,80.93
2019-03-24T20:52:36.097Z,79.37
2019-03-24T20:55:05.479Z,88.47
2019-03-24T20:57:34.386Z,79.67
2019-03-24T21:00:03.505Z,77.30
2019-03-24T21:02:32.489Z,81.80
2019-03-24T21:05:01.502Z,80.83
2019-03-24T21:07:30.545Z,84.80
2019-03-24T21:09:59.561Z,87.57
2019-03-24T21:12:28.623Z,88.47
2019-03-24T21:14:57.698Z,87.73
2019-03-24T21:17:26.740Z,81.47
2019-03-24T21:19:56.058Z,86.23
2019-03-24T21:22:25.198Z,88.93
2019-03-24T21:24:54.184Z,84.83
2019-03-24T21:27:23.217Z,86.73
2019-03-24T21:29:52.067Z,91.53
2019-03-24T21:32:21.146Z,82.77
2019-03-24T21:34:49.975Z,88.27
2019-03-24T21:37:18.951Z,88.40
2019-03-24T21:39:47.917Z,89.73
2019-03-24T21:42:16.914Z,92.57
2019-03-24T21:44:45.878Z,93.10
2019-03-24T21:47:14.915Z,87.30
2019-03-24T21:49:43.891Z,87.03
2019-03-24T21:52:12.918Z,88.47
2019-03-24T21:54:42.010Z,94.03
2019-03-24T21:57:10.841Z,90.70
2019-03-24T21:59:39.775Z,87.97
2019-03-24T22:02:08.845Z,93.13
2019-03-24T22:04:37.893Z,89.30
2019-03-24T22:07:06.874Z,91.60
2019-03-24T22:09:35.815Z,95.40
2019-03-24T22:12:04.872Z,99.17
2019-03-24T22:14:34.418Z,92.50
2019-03-24T22:17:03.378Z,89.47
2019-03-24T22:19:32.398Z,102.00
2019-03-24T22:22:01.435Z,93.23
2019-03-24T22:24:30.531Z,86.13
2019-03-24T22:27:02.614Z,98.83
2019-03-24T22:29:31.675Z,94.27
2019-03-24T22:32:02.484Z,97.63
2019-03-24T22:34:31.533Z,100.13
2019-03-24T22:37:02.231Z,100.13
2019-03-24T22:39:31.325Z,87.53
2019-03-24T22:42:00.479Z,92.03
2019-03-24T22:44:32.321Z,90.93
2019-03-24T22:47:01.411Z,94.90
2019-03-24T22:49:30.463Z,83.57
2019-03-24T22:52:07.348Z,81.87
2019-03-24T22:54:30.567Z,87.30
2019-03-24T22:56:59.609Z,88.47
2019-03-24T22:59:28.719Z,92.97
2019-03-24T23:02:00.575Z,82.93
2019-03-24T23:04:29.655Z,86.80
2019-03-24T23:06:59.945Z,95.50
2019-03-24T23:09:29.047Z,85.77
2019-03-24T23:11:58.113Z,87.03
2019-03-24T23:14:27.065Z,84.07
2019-03-24T23:16:56.140Z,91.43
2019-03-24T23:19:25.247Z,86.43
2019-03-24T23:21:54.253Z,91.43
2019-03-24T23:24:23.277Z,83.87
2019-03-24T23:26:52.241Z,82.57
2019-03-24T23:29:21.235Z,85.97
2019-03-24T23:31:50.286Z,83.00
2019-03-24T23:34:19.283Z,81.30
2019-03-24T23:36:48.198Z,80.10
2019-03-24T23:39:18.348Z,86.67
2019-03-24T23:41:47.311Z,88.23
2019-03-24T23:44:16.301Z,82.63
2019-03-24T23:46:45.401Z,78.83
2019-03-24T23:49:14.441Z,82.67
2019-03-24T23:51:43.497Z,85.50
2019-03-24T23:54:12.486Z,78.60
2019-03-24T23:56:41.589Z,86.60
2019-03-24T23:59:10.633Z,82.27
